createdAt,value
2018-02-18T00:01:39.194Z,23.33
2018-02-18T00:04:06.703Z,19.23
2018-02-18T00:06:34.178Z,20.40
2018-02-18T00:09:01.769Z,19.53
2018-02-18T00:11:29.312Z,22.27
2018-02-18T00:13:56.805Z,20.53
2018-02-18T00:16:24.257Z,24.30
2018-02-18T00:18:51.837Z,23.98
2018-02-18T00:21:19.377Z,20.33
2018-02-18T00:23:46.847Z,22.37
2018-02-18T00:26:14.642Z,18.93
2018-02-18T00:28:42.099Z,26.60
2018-02-18T00:31:09.611Z,23.60
2018-02-18T00:33:37.043Z,26.37
2018-02-18T00:36:04.497Z,22.20
2018-02-18T00:38:32.045Z,21.20
2018-02-18T00:40:59.547Z,26.20
2018-02-18T00:43:27.021Z,23.07
2018-02-18T00:45:54.473Z,24.80
2018-02-18T00:48:22.419Z,25.00
2018-02-18T00:50:49.966Z,21.07
2018-02-18T00:53:17.435Z,25.63
2018-02-18T00:55:44.950Z,26.53
2018-02-18T00:58:12.451Z,24.87
2018-02-18T01:00:39.913Z,25.40
2018-02-18T01:03:07.396Z,24.27
2018-02-18T01:05:34.881Z,27.57
2018-02-18T01:10:55.159Z,26.77
2018-02-18T01:13:22.630Z,28.20
2018-02-18T01:15:50.096Z,24.23
2018-02-18T01:18:17.675Z,26.23
2018-02-18T01:20:45.167Z,25.87
2018-02-18T01:23:12.685Z,24.93
2018-02-18T01:25:40.158Z,26.37
2018-02-18T01:28:07.697Z,25.50
2018-02-18T01:30:35.220Z,20.63
2018-02-18T01:33:02.943Z,27.13
2018-02-18T01:35:30.426Z,21.27
2018-02-18T01:37:57.946Z,25.10
2018-02-18T01:40:25.411Z,24.50
2018-02-18T01:42:52.915Z,24.23
2018-02-18T01:45:21.240Z,24.97
2018-02-18T01:47:48.682Z,24.23
2018-02-18T01:50:28.039Z,24.87
2018-02-18T01:52:55.647Z,26.57
2018-02-18T01:55:23.167Z,26.03
2018-02-18T01:57:50.612Z,24.97
2018-02-18T02:00:18.244Z,25.77
2018-02-18T02:02:45.796Z,28.30
2018-02-18T02:05:13.288Z,28.63
2018-02-18T02:07:40.722Z,27.40
2018-02-18T02:10:08.165Z,22.40
2018-02-18T02:12:35.668Z,29.40
2018-02-18T02:15:03.178Z,25.23
2018-02-18T02:17:30.691Z,23.23
2018-02-18T02:19:58.348Z,27.43
2018-02-18T02:22:25.948Z,29.80
2018-02-18T02:24:53.416Z,26.23
2018-02-18T02:27:20.966Z,29.23
2018-02-18T02:29:48.545Z,29.67
2018-02-18T02:32:16.019Z,32.00
2018-02-18T02:34:43.469Z,28.27
2018-02-18T02:37:11.014Z,28.43
2018-02-18T02:39:38.489Z,24.27
2018-02-18T02:42:06.016Z,25.97
2018-02-18T02:44:33.519Z,21.73
2018-02-18T02:47:00.974Z,29.47
2018-02-18T02:49:28.426Z,24.40
2018-02-18T02:51:55.921Z,21.00
2018-02-18T02:54:23.605Z,26.83
2018-02-18T02:56:51.733Z,29.67
2018-02-18T02:59:19.238Z,28.57
2018-02-18T03:01:46.719Z,22.70
2018-02-18T03:04:14.184Z,26.57
2018-02-18T03:06:41.750Z,28.67
2018-02-18T03:09:09.246Z,23.57
2018-02-18T03:11:36.770Z,31.13
2018-02-18T03:14:04.343Z,29.43
2018-02-18T03:16:32.605Z,27.93
2018-02-18T03:19:00.180Z,29.03
2018-02-18T03:21:27.638Z,22.03
2018-02-18T03:23:55.136Z,31.57
2018-02-18T03:26:22.627Z,29.50
2018-02-18T03:28:50.103Z,24.90
2018-02-18T03:31:17.581Z,25.97
2018-02-18T03:33:45.032Z,30.60
2018-02-18T03:36:12.518Z,24.10
2018-02-18T03:38:39.996Z,29.10
2018-02-18T03:41:07.490Z,22.77
2018-02-18T03:43:34.968Z,24.40
2018-02-18T03:46:02.428Z,30.53
2018-02-18T03:48:29.876Z,23.67
2018-02-18T03:50:57.386Z,32.03
2018-02-18T03:53:24.934Z,25.13
2018-02-18T03:55:52.412Z,25.13
2018-02-18T03:58:20.244Z,27.47
2018-02-18T04:00:47.698Z,27.37
2018-02-18T04:03:15.232Z,25.17
2018-02-18T04:05:42.688Z,27.17
2018-02-18T04:08:10.984Z,22.80
2018-02-18T04:10:38.492Z,22.87
2018-02-18T04:13:05.958Z,25.80
2018-02-18T04:15:33.420Z,27.53
2018-02-18T04:18:00.872Z,25.47
2018-02-18T04:20:28.354Z,27.13
2018-02-18T04:22:55.808Z,29.63
2018-02-18T04:25:23.261Z,25.63
2018-02-18T04:27:50.711Z,28.47
2018-02-18T04:30:18.168Z,26.33
2018-02-18T04:32:45.656Z,27.13
2018-02-18T04:35:13.930Z,24.40
2018-02-18T04:37:41.422Z,26.60
2018-02-18T04:40:09.436Z,25.50
2018-02-18T04:42:36.943Z,26.83
2018-02-18T04:45:04.427Z,23.73
2018-02-18T04:47:31.880Z,26.00
2018-02-18T04:49:59.446Z,25.33
2018-02-18T04:52:26.896Z,30.33
2018-02-18T04:54:54.432Z,26.27
2018-02-18T04:57:21.935Z,25.27
2018-02-18T04:59:49.470Z,31.53
2018-02-18T05:02:16.965Z,26.67
2018-02-18T05:04:44.700Z,30.80
2018-02-18T05:07:12.984Z,24.00
2018-02-18T05:09:40.508Z,27.90
2018-02-18T05:12:09.860Z,25.50
2018-02-18T05:14:37.315Z,25.77
2018-02-18T05:17:04.803Z,22.57
2018-02-18T05:19:32.290Z,24.13
2018-02-18T05:22:00.589Z,32.33
2018-02-18T05:24:28.030Z,27.10
2018-02-18T05:26:55.580Z,25.10
2018-02-18T05:29:23.120Z,27.97
2018-02-18T05:31:50.565Z,31.30
2018-02-18T05:34:18.046Z,23.20
2018-02-18T05:36:47.379Z,28.90
2018-02-18T05:39:16.682Z,26.53
2018-02-18T05:41:44.238Z,29.57
2018-02-18T05:44:11.694Z,25.47
2018-02-18T05:46:39.181Z,26.80
2018-02-18T05:49:06.809Z,30.50
2018-02-18T05:51:34.316Z,31.40
2018-02-18T05:54:01.858Z,27.30
2018-02-18T05:56:29.334Z,30.13
2018-02-18T05:58:56.762Z,28.17
2018-02-18T06:01:24.212Z,30.83
2018-02-18T06:03:51.684Z,28.00
2018-02-18T06:06:19.174Z,30.83
2018-02-18T06:08:46.693Z,25.77
2018-02-18T06:11:14.176Z,30.53
2018-02-18T06:13:41.659Z,29.20
2018-02-18T06:16:09.222Z,28.37
2018-02-18T06:18:37.668Z,32.13
2018-02-18T06:21:05.140Z,29.23
2018-02-18T06:23:32.654Z,30.40
2018-02-18T06:26:00.114Z,30.20
2018-02-18T06:28:27.961Z,25.37
2018-02-18T06:30:55.484Z,26.70
2018-02-18T06:33:22.986Z,30.03
2018-02-18T06:35:51.307Z,30.40
2018-02-18T06:38:19.111Z,29.30
2018-02-18T06:40:46.579Z,26.93
2018-02-18T06:43:14.107Z,27.30
2018-02-18T06:45:41.653Z,31.07
2018-02-18T06:48:09.104Z,31.33
2018-02-18T06:50:36.550Z,29.63
2018-02-18T06:53:03.989Z,28.03
2018-02-18T06:55:31.490Z,29.57
2018-02-18T06:57:59.012Z,33.50
2018-02-18T07:00:26.549Z,34.73
2018-02-18T07:02:54.102Z,30.37
2018-02-18T07:05:22.503Z,29.33
2018-02-18T07:07:49.979Z,25.53
2018-02-18T07:10:17.479Z,27.77
2018-02-18T07:12:44.935Z,26.17
2018-02-18T07:15:12.489Z,30.67
2018-02-18T07:17:39.984Z,28.33
2018-02-18T07:20:07.793Z,30.10
2018-02-18T07:22:35.247Z,29.33
2018-02-18T07:25:02.803Z,28.67
2018-02-18T07:27:30.368Z,27.90
2018-02-18T07:29:57.850Z,26.77
2018-02-18T07:32:25.313Z,32.97
2018-02-18T07:34:52.764Z,31.70
2018-02-18T07:37:20.277Z,30.07
2018-02-18T07:39:47.774Z,33.10
2018-02-18T07:42:15.525Z,31.27
2018-02-18T07:44:42.999Z,29.40
2018-02-18T07:47:10.513Z,31.83
2018-02-18T07:49:37.993Z,28.57
2018-02-18T07:52:05.475Z,31.33
2018-02-18T07:54:32.967Z,30.33
2018-02-18T07:57:00.425Z,29.40
2018-02-18T07:59:27.953Z,29.53
2018-02-18T08:01:55.616Z,33.03
2018-02-18T08:04:23.132Z,34.63
2018-02-18T08:06:50.627Z,30.50
2018-02-18T08:09:18.195Z,29.50
2018-02-18T08:11:46.719Z,33.27
2018-02-18T08:14:14.221Z,31.20
2018-02-18T08:16:41.847Z,28.63
2018-02-18T08:19:09.359Z,29.50
2018-02-18T08:21:36.867Z,30.73
2018-02-18T08:24:04.417Z,33.03
2018-02-18T08:26:32.105Z,29.03
2018-02-18T08:29:04.579Z,31.43
2018-02-18T08:31:32.141Z,30.50
2018-02-18T08:34:00.503Z,28.43
2018-02-18T08:36:27.979Z,31.07
2018-02-18T08:38:55.581Z,28.07
2018-02-18T08:41:23.083Z,30.50
2018-02-18T08:43:50.533Z,32.30
2018-02-18T08:46:18.005Z,32.37
2018-02-18T08:48:45.543Z,29.93
2018-02-18T08:51:13.035Z,29.97
2018-02-18T08:53:40.569Z,28.97
2018-02-18T08:56:08.057Z,29.60
2018-02-18T08:58:35.549Z,28.27
2018-02-18T09:01:03.355Z,27.73
2018-02-18T09:03:31.013Z,31.97
2018-02-18T09:05:58.567Z,29.43
2018-02-18T09:08:26.059Z,28.87
2018-02-18T09:10:53.621Z,31.30
2018-02-18T09:13:21.185Z,30.63
2018-02-18T09:15:48.716Z,27.33
2018-02-18T09:18:16.933Z,28.67
2018-02-18T09:20:44.643Z,27.87
2018-02-18T09:23:12.388Z,32.93
2018-02-18T09:25:39.975Z,25.10
2018-02-18T09:28:07.553Z,25.87
2018-02-18T09:30:35.046Z,33.87
2018-02-18T09:33:02.567Z,27.83
2018-02-18T09:35:30.333Z,28.77
2018-02-18T09:37:58.069Z,26.13
2018-02-18T09:40:25.833Z,27.03
2018-02-18T09:42:53.334Z,26.50
2018-02-18T09:45:20.819Z,28.27
2018-02-18T09:47:48.358Z,30.07
2018-02-18T09:50:15.853Z,30.57
2018-02-18T09:52:43.483Z,25.13
2018-02-18T09:55:10.999Z,27.57
2018-02-18T09:57:38.502Z,24.40
2018-02-18T10:00:05.953Z,25.13
2018-02-18T10:02:33.419Z,29.20
2018-02-18T10:05:01.357Z,26.53
2018-02-18T10:07:28.953Z,29.27
2018-02-18T10:09:56.737Z,24.43
2018-02-18T10:12:24.230Z,26.70
2018-02-18T10:14:52.147Z,24.20
2018-02-18T10:17:19.715Z,25.63
2018-02-18T10:19:47.242Z,26.83
2018-02-18T10:22:14.909Z,25.23
2018-02-18T10:24:42.625Z,32.27
2018-02-18T10:27:10.397Z,28.73
2018-02-18T10:29:37.933Z,26.23
2018-02-18T10:32:05.562Z,26.10
2018-02-18T10:34:33.193Z,24.37
2018-02-18T10:37:00.661Z,25.77
2018-02-18T10:39:28.175Z,24.80
2018-02-18T10:41:55.767Z,25.47
2018-02-18T10:44:23.221Z,26.07
2018-02-18T10:46:50.746Z,24.23
2018-02-18T10:49:18.327Z,27.73
2018-02-18T10:51:45.893Z,27.73
2018-02-18T10:54:13.688Z,26.20
2018-02-18T10:56:41.133Z,22.70
2018-02-18T10:59:08.641Z,25.83
2018-02-18T11:01:36.241Z,24.63
2018-02-18T11:04:03.917Z,23.87
2018-02-18T11:06:31.505Z,24.07
2018-02-18T11:08:59.089Z,19.77
2018-02-18T11:11:26.673Z,24.27
2018-02-18T11:13:54.202Z,28.77
2018-02-18T11:16:21.745Z,26.80
2018-02-18T11:18:49.231Z,26.07
2018-02-18T11:21:17.013Z,25.47
2018-02-18T11:23:44.535Z,26.93
2018-02-18T11:26:11.997Z,26.53
2018-02-18T11:28:39.630Z,29.57
2018-02-18T11:31:07.297Z,26.37
2018-02-18T11:33:34.925Z,26.87
2018-02-18T11:36:02.439Z,24.53
2018-02-18T11:38:30.117Z,25.27
2018-02-18T11:40:57.637Z,26.27
2018-02-18T11:43:25.666Z,22.40
2018-02-18T11:45:53.225Z,21.53
2018-02-18T11:48:20.766Z,24.07
2018-02-18T11:50:48.380Z,27.23
2018-02-18T11:53:16.130Z,24.03
2018-02-18T11:55:43.733Z,25.80
2018-02-18T11:58:11.461Z,25.10
2018-02-18T12:00:39.098Z,27.93
2018-02-18T12:03:06.642Z,25.00
2018-02-18T12:05:34.213Z,22.13
2018-02-18T12:08:01.728Z,21.80
2018-02-18T12:10:29.320Z,28.67
2018-02-18T12:12:56.934Z,23.37
2018-02-18T12:15:24.453Z,24.70
2018-02-18T12:17:51.972Z,27.37
2018-02-18T12:20:19.463Z,23.97
2018-02-18T12:22:46.976Z,30.37
2018-02-18T12:25:14.446Z,28.20
2018-02-18T12:27:42.002Z,26.47
2018-02-18T12:30:09.826Z,25.57
2018-02-18T12:32:37.430Z,24.47
2018-02-18T12:35:04.923Z,24.93
2018-02-18T12:37:32.518Z,26.03
2018-02-18T12:40:00.056Z,26.97
2018-02-18T12:42:27.574Z,24.97
2018-02-18T12:44:55.432Z,24.03
2018-02-18T12:47:23.092Z,22.13
2018-02-18T12:49:50.589Z,23.53
2018-02-18T12:52:18.128Z,24.33
2018-02-18T12:54:45.670Z,25.00
2018-02-18T12:57:13.182Z,24.40
2018-02-18T12:59:40.851Z,22.93
2018-02-18T13:02:08.440Z,21.27
2018-02-18T13:04:36.089Z,21.03
2018-02-18T13:07:03.584Z,20.93
2018-02-18T13:09:31.129Z,20.60
2018-02-18T13:11:58.692Z,20.40
2018-02-18T13:14:26.241Z,22.07
2018-02-18T13:16:53.702Z,25.47
2018-02-18T13:19:21.329Z,28.00
2018-02-18T13:21:48.788Z,20.20
2018-02-18T13:24:16.334Z,21.43
2018-02-18T13:26:44.102Z,28.40
2018-02-18T13:29:11.846Z,25.87
2018-02-18T13:31:39.368Z,24.60
2018-02-18T13:34:06.938Z,22.87
2018-02-18T13:36:34.410Z,20.60
2018-02-18T13:39:02.037Z,25.03
2018-02-18T13:41:29.492Z,24.93
2018-02-18T13:43:58.027Z,24.27
2018-02-18T13:46:25.724Z,23.20
2018-02-18T13:48:54.448Z,21.53
2018-02-18T13:51:22.667Z,23.00
2018-02-18T13:53:50.680Z,18.83
2018-02-18T13:56:19.382Z,16.50
2018-02-18T13:58:47.264Z,16.07
2018-02-18T14:01:14.908Z,16.60
2018-02-18T14:03:44.681Z,15.47
2018-02-18T14:06:12.595Z,18.27
2018-02-18T14:08:49.825Z,15.80
2018-02-18T14:11:18.393Z,18.90
2018-02-18T14:13:46.924Z,17.47
2018-02-18T14:16:15.488Z,16.73
2018-02-18T14:18:44.313Z,15.70
2018-02-18T14:21:11.812Z,16.60
2018-02-18T14:23:39.304Z,20.70
2018-02-18T14:26:07.428Z,18.67
2018-02-18T14:28:35.139Z,19.47
2018-02-18T14:31:02.636Z,18.77
2018-02-18T14:33:30.166Z,17.90
2018-02-18T14:35:57.756Z,18.47
2018-02-18T14:38:30.302Z,18.77
2018-02-18T14:40:57.859Z,21.90
2018-02-18T14:43:37.279Z,18.73
2018-02-18T14:46:16.680Z,17.77
2018-02-18T14:48:56.091Z,20.10
2018-02-18T14:51:35.506Z,15.70
2018-02-18T14:54:14.683Z,17.23
2018-02-18T14:56:48.012Z,14.87
2018-02-18T14:59:15.554Z,15.67
2018-02-18T15:01:42.990Z,16.37
2018-02-18T15:04:10.591Z,13.07
2018-02-18T15:06:39.003Z,13.77
2018-02-18T15:09:06.851Z,16.03
2018-02-18T15:11:34.375Z,14.70
2018-02-18T15:14:02.018Z,15.30
2018-02-18T15:16:29.554Z,12.47
2018-02-18T15:18:57.461Z,12.00
2018-02-18T15:21:25.387Z,13.17
2018-02-18T15:23:53.823Z,16.90
2018-02-18T15:26:21.353Z,14.37
2018-02-18T15:28:50.348Z,15.07
2018-02-18T15:31:17.926Z,18.53
2018-02-18T15:33:45.545Z,16.80
2018-02-18T15:38:50.557Z,17.90
2018-02-18T15:41:18.163Z,19.53
2018-02-18T15:43:45.717Z,18.10
2018-02-18T15:46:13.363Z,19.27
2018-02-18T15:48:40.909Z,17.83
2018-02-18T15:51:18.635Z,18.30
2018-02-18T15:53:46.937Z,18.53
2018-02-18T15:56:14.461Z,17.17
2018-02-18T15:58:42.488Z,17.83
2018-02-18T16:01:10.091Z,20.20
2018-02-18T16:03:37.601Z,17.90
2018-02-18T16:06:05.340Z,19.87
2018-02-18T16:08:32.977Z,20.93
2018-02-18T16:11:00.523Z,20.23
2018-02-18T16:13:28.200Z,17.20
2018-02-18T16:15:56.771Z,18.47
2018-02-18T16:18:29.344Z,18.53
2018-02-18T16:20:57.111Z,21.10
2018-02-18T16:23:24.646Z,20.20
2018-02-18T16:25:52.252Z,21.90
2018-02-18T16:28:20.057Z,19.90
2018-02-18T16:30:47.644Z,21.63
2018-02-18T16:33:15.301Z,20.83
2018-02-18T16:35:42.775Z,22.17
2018-02-18T16:38:12.990Z,22.83
2018-02-18T16:40:40.638Z,21.23
2018-02-18T16:43:10.153Z,21.83
2018-02-18T16:45:38.055Z,20.60
2018-02-18T16:48:08.287Z,22.27
2018-02-18T16:50:35.989Z,20.67
2018-02-18T16:53:05.777Z,23.80
2018-02-18T16:55:33.333Z,26.90
2018-02-18T16:58:01.295Z,21.67
2018-02-18T17:00:28.809Z,20.23
2018-02-18T17:02:58.159Z,21.30
2018-02-18T17:05:26.264Z,22.47
2018-02-18T17:07:54.023Z,23.80
2018-02-18T17:10:21.529Z,24.23
2018-02-18T17:12:49.085Z,22.63
2018-02-18T17:15:16.618Z,28.23
2018-02-18T17:17:44.165Z,21.83
2018-02-18T17:20:12.006Z,22.60
2018-02-18T17:22:39.563Z,23.37
2018-02-18T17:25:07.287Z,24.20
2018-02-18T17:27:35.323Z,24.57
2018-02-18T17:30:04.196Z,26.67
2018-02-18T17:32:31.833Z,23.73
2018-02-18T17:34:59.642Z,27.67
2018-02-18T17:37:27.357Z,23.67
2018-02-18T17:39:56.106Z,22.80
2018-02-18T17:42:24.817Z,24.63
2018-02-18T17:44:52.348Z,21.53
2018-02-18T17:47:20.001Z,22.47
2018-02-18T17:49:47.743Z,22.90
2018-02-18T17:52:15.587Z,26.03
2018-02-18T17:54:43.197Z,22.83
2018-02-18T17:57:11.234Z,24.93
2018-02-18T17:59:38.952Z,25.43
2018-02-18T18:02:06.616Z,25.07
2018-02-18T18:04:34.314Z,24.40
2018-02-18T18:07:01.900Z,23.23
2018-02-18T18:09:29.488Z,24.17
2018-02-18T18:11:57.077Z,24.43
2018-02-18T18:14:24.556Z,25.83
2018-02-18T18:16:52.155Z,27.40
2018-02-18T18:19:19.744Z,25.80
2018-02-18T18:21:47.263Z,26.00
2018-02-18T18:24:15.685Z,26.63
2018-02-18T18:26:43.273Z,26.30
2018-02-18T18:29:10.836Z,26.83
2018-02-18T18:31:39.416Z,26.97
2018-02-18T18:34:07.207Z,26.53
2018-02-18T18:36:34.796Z,26.53
2018-02-18T18:39:02.306Z,29.97
2018-02-18T18:41:29.888Z,28.70
2018-02-18T18:43:57.515Z,25.53
2018-02-18T18:46:25.136Z,25.63
2018-02-18T18:48:52.664Z,29.87
2018-02-18T18:51:20.195Z,30.40
2018-02-18T18:53:47.803Z,27.43
2018-02-18T18:56:15.326Z,27.77
2018-02-18T18:58:42.835Z,29.70
2018-02-18T19:01:10.414Z,27.43
2018-02-18T19:03:38.179Z,27.53
2018-02-18T19:06:06.672Z,25.37
2018-02-18T19:08:34.571Z,29.67
2018-02-18T19:11:02.144Z,28.00
2018-02-18T19:13:29.727Z,26.03
2018-02-18T19:15:57.307Z,23.63
2018-02-18T19:18:24.919Z,27.70
2018-02-18T19:20:52.464Z,30.67
2018-02-18T19:23:20.016Z,28.03
2018-02-18T19:25:48.391Z,27.87
2018-02-18T19:28:15.916Z,27.40
2018-02-18T19:30:43.613Z,30.60
2018-02-18T19:33:11.136Z,25.40
2018-02-18T19:35:38.947Z,28.57
2018-02-18T19:38:06.473Z,25.00
2018-02-18T19:40:33.983Z,25.73
2018-02-18T19:43:02.236Z,28.97
2018-02-18T19:45:32.492Z,24.73
2018-02-18T19:48:00.142Z,25.20
2018-02-18T19:50:28.281Z,24.43
2018-02-18T19:52:56.061Z,25.00
2018-02-18T19:55:23.629Z,22.80
2018-02-18T19:57:56.383Z,24.30
2018-02-18T20:00:24.011Z,25.47
2018-02-18T20:02:52.211Z,22.27
2018-02-18T20:05:19.799Z,22.00
2018-02-18T20:07:47.468Z,24.77
2018-02-18T20:10:15.137Z,22.80
2018-02-18T20:12:42.872Z,21.63
2018-02-18T20:15:10.519Z,23.27
2018-02-18T20:17:38.433Z,24.50
2018-02-18T20:20:07.108Z,25.60
2018-02-18T20:22:34.689Z,21.03
2018-02-18T20:25:02.261Z,22.20
2018-02-18T20:27:29.963Z,22.20
2018-02-18T20:29:57.803Z,22.77
2018-02-18T20:32:25.607Z,22.40
2018-02-18T20:34:53.437Z,25.37
2018-02-18T20:37:21.183Z,21.33
2018-02-18T20:39:49.741Z,21.53
2018-02-18T20:42:17.228Z,23.83
2018-02-18T20:44:45.793Z,20.83
2018-02-18T20:47:13.475Z,22.63
2018-02-18T20:49:43.104Z,21.63
2018-02-18T20:52:10.605Z,20.57
2018-02-18T20:54:38.171Z,20.93
2018-02-18T20:57:06.277Z,22.90
2018-02-18T20:59:34.457Z,22.00
2018-02-18T21:02:02.107Z,22.80
2018-02-18T21:04:29.609Z,20.63
2018-02-18T21:06:57.510Z,22.93
2018-02-18T21:09:25.646Z,24.77
2018-02-18T21:11:54.439Z,20.90
2018-02-18T21:14:22.076Z,23.97
2018-02-18T21:16:49.659Z,20.97
2018-02-18T21:19:17.443Z,20.83
2018-02-18T21:21:45.795Z,22.17
2018-02-18T21:24:13.318Z,20.93
2018-02-18T21:26:42.788Z,21.07
2018-02-18T21:29:10.577Z,20.83
2018-02-18T21:31:38.118Z,22.80
2018-02-18T21:34:05.653Z,21.77
2018-02-18T21:36:33.315Z,20.57
2018-02-18T21:39:00.897Z,20.37
2018-02-18T21:41:28.758Z,19.80
2018-02-18T21:43:56.376Z,21.03
2018-02-18T21:46:23.907Z,20.20
2018-02-18T21:48:51.561Z,24.87
2018-02-18T21:51:19.032Z,20.27
2018-02-18T21:53:46.685Z,21.90
2018-02-18T21:56:14.176Z,21.87
2018-02-18T21:58:42.858Z,25.50
2018-02-18T22:01:10.588Z,19.90
2018-02-18T22:03:39.177Z,20.57
2018-02-18T22:06:06.963Z,22.70
2018-02-18T22:08:34.761Z,22.20
2018-02-18T22:11:03.906Z,21.33
2018-02-18T22:13:31.958Z,21.43
2018-02-18T22:15:59.842Z,22.40
2018-02-18T22:18:27.652Z,20.70
2018-02-18T22:20:55.268Z,22.73
2018-02-18T22:23:24.481Z,23.13
2018-02-18T22:25:52.258Z,20.07
2018-02-18T22:28:19.766Z,22.43
2018-02-18T22:30:47.597Z,21.37
2018-02-18T22:33:15.437Z,21.37
2018-02-18T22:35:43.386Z,22.37
2018-02-18T22:38:12.238Z,21.47
2018-02-18T22:40:40.703Z,21.23
2018-02-18T22:43:08.232Z,22.97
2018-02-18T22:45:36.079Z,22.17
2018-02-18T22:48:03.622Z,25.73
2018-02-18T22:50:31.660Z,21.23
2018-02-18T22:52:59.216Z,21.87
2018-02-18T22:55:26.728Z,22.00
2018-02-18T22:57:54.532Z,19.57
2018-02-18T23:00:22.377Z,18.53
2018-02-18T23:02:49.894Z,20.33
2018-02-18T23:05:22.958Z,18.23
2018-02-18T23:07:50.431Z,20.47
2018-02-18T23:10:19.902Z,22.37
2018-02-18T23:12:48.212Z,22.67
2018-02-18T23:15:16.907Z,21.93
2018-02-18T23:17:44.752Z,20.20
2018-02-18T23:20:12.664Z,21.23
2018-02-18T23:22:41.397Z,21.37
2018-02-18T23:25:09.813Z,18.27
2018-02-18T23:27:38.529Z,21.00
2018-02-18T23:30:06.393Z,19.97
2018-02-18T23:32:33.897Z,21.43
2018-02-18T23:35:01.420Z,20.43
2018-02-18T23:37:28.992Z,21.30
2018-02-18T23:39:56.511Z,18.77
2018-02-18T23:42:24.115Z,17.17
2018-02-18T23:44:51.868Z,20.50
2018-02-18T23:47:19.486Z,17.83
2018-02-18T23:49:48.371Z,18.67
2018-02-18T23:52:16.849Z,20.73
2018-02-18T23:54:44.387Z,20.70
2018-02-18T23:57:11.976Z,18.87
2018-02-18T23:59:39.533Z,18.37
